createdAt,value
2023-11-04T00:01:46.863Z,2.03
2023-11-04T00:03:48.512Z,1.70
2023-11-04T00:05:50.073Z,1.85
2023-11-04T00:07:52.530Z,2.00
2023-11-04T00:09:55.930Z,1.92
2023-11-04T00:11:58.623Z,1.80
2023-11-04T00:14:00.170Z,1.50
2023-11-04T00:16:04.406Z,2.10
2023-11-04T00:18:06.015Z,1.73
2023-11-04T00:20:08.157Z,1.40
2023-11-04T00:22:09.643Z,1.73
2023-11-04T00:24:11.716Z,1.50
2023-11-04T00:26:13.170Z,1.90
2023-11-04T00:28:20.224Z,1.75
2023-11-04T00:30:21.734Z,1.90
2023-11-04T00:32:24.649Z,1.42
2023-11-04T00:34:27.406Z,1.55
2023-11-04T00:36:29.372Z,1.70
2023-11-04T00:38:32.086Z,1.50
2023-11-04T00:40:33.551Z,1.38
2023-11-04T00:42:35.075Z,1.70
2023-11-04T00:44:36.576Z,1.27
2023-11-04T00:46:39.731Z,1.63
2023-11-04T00:48:41.331Z,1.40
2023-11-04T00:50:43.120Z,1.40
2023-11-04T00:52:44.602Z,1.45
2023-11-04T00:54:46.145Z,1.63
2023-11-04T00:56:47.740Z,1.40
2023-11-04T00:58:49.216Z,1.58
2023-11-04T01:00:50.836Z,1.25
2023-11-04T01:02:56.738Z,1.52
2023-11-04T01:04:58.333Z,1.98
2023-11-04T01:06:59.796Z,1.48
2023-11-04T01:09:01.309Z,1.50
2023-11-04T01:11:02.882Z,1.33
2023-11-04T01:13:05.371Z,1.42
2023-11-04T01:15:08.085Z,1.20
2023-11-04T01:17:09.710Z,1.15
2023-11-04T01:19:11.243Z,1.48
2023-11-04T01:21:12.797Z,1.40
2023-11-04T01:23:14.510Z,1.50
2023-11-04T01:25:16.466Z,1.45
2023-11-04T01:27:17.943Z,1.52
2023-11-04T01:29:20.286Z,1.38
2023-11-04T01:31:21.762Z,1.27
2023-11-04T01:33:23.487Z,1.40
2023-11-04T01:35:25.186Z,1.40
2023-11-04T01:37:26.936Z,1.38
2023-11-04T01:39:28.478Z,1.45
2023-11-04T01:41:29.982Z,1.42
2023-11-04T01:43:31.523Z,1.30
2023-11-04T01:45:35.495Z,1.55
2023-11-04T01:47:38.480Z,1.30
2023-11-04T01:49:40.048Z,1.38
2023-11-04T01:51:41.614Z,1.20
2023-11-04T01:53:48.324Z,1.10
2023-11-04T01:55:49.996Z,1.50
2023-11-04T01:57:51.682Z,1.40
2023-11-04T01:59:53.255Z,1.50
2023-11-04T02:01:54.992Z,1.40
2023-11-04T02:03:56.702Z,1.40
2023-11-04T02:06:01.734Z,1.33
2023-11-04T02:08:03.234Z,1.58
2023-11-04T02:10:06.690Z,1.70
2023-11-04T02:12:12.727Z,1.35
2023-11-04T02:14:14.274Z,1.52
2023-11-04T02:16:15.781Z,1.63
2023-11-04T02:18:17.966Z,1.40
2023-11-04T02:20:24.068Z,1.48
2023-11-04T02:22:26.096Z,1.20
2023-11-04T02:24:27.703Z,1.40
2023-11-04T02:26:29.466Z,1.52
2023-11-04T02:28:30.962Z,1.88
2023-11-04T02:30:33.077Z,1.40
2023-11-04T02:32:34.675Z,1.63
2023-11-04T02:34:36.409Z,1.60
2023-11-04T02:36:37.965Z,1.30
2023-11-04T02:38:39.480Z,1.35
2023-11-04T02:40:41.021Z,1.40
2023-11-04T02:42:42.680Z,1.40
2023-11-04T02:44:46.717Z,1.30
2023-11-04T02:46:51.000Z,1.38
2023-11-04T02:48:52.584Z,1.30
2023-11-04T02:50:54.303Z,1.30
2023-11-04T02:52:56.353Z,1.20
2023-11-04T02:54:58.245Z,1.40
2023-11-04T02:56:59.864Z,1.27
2023-11-04T02:59:01.437Z,1.30
2023-11-04T03:01:03.147Z,1.30
2023-11-04T03:03:05.120Z,1.40
2023-11-04T03:05:07.132Z,1.25
2023-11-04T03:07:09.353Z,1.05
2023-11-04T03:09:10.979Z,1.60
2023-11-04T03:11:12.553Z,1.50
2023-11-04T03:13:14.134Z,1.02
2023-11-04T03:15:19.805Z,1.40
2023-11-04T03:17:21.321Z,1.50
2023-11-04T03:19:22.993Z,1.20
2023-11-04T03:21:24.784Z,1.38
2023-11-04T03:23:26.432Z,1.40
2023-11-04T03:25:28.123Z,1.30
2023-11-04T03:27:29.712Z,1.55
2023-11-04T03:29:32.239Z,1.45
2023-11-04T03:35:42.757Z,1.40
2023-11-04T03:38:13.710Z,1.38
2023-11-04T03:40:17.036Z,1.38
2023-11-04T03:48:30.718Z,1.30
2023-11-04T03:50:32.255Z,1.40
2023-11-04T03:52:33.755Z,1.70
2023-11-04T03:54:36.979Z,1.63
2023-11-04T03:56:39.605Z,1.67
2023-11-04T03:58:41.053Z,1.73
2023-11-04T04:00:42.683Z,1.70
2023-11-04T04:02:44.237Z,1.65
2023-11-04T04:04:45.716Z,1.58
2023-11-04T04:06:47.398Z,1.40
2023-11-04T04:08:48.955Z,1.90
2023-11-04T04:10:50.500Z,1.95
2023-11-04T04:12:55.139Z,1.50
2023-11-04T04:14:56.609Z,1.80
2023-11-04T04:16:58.103Z,1.70
2023-11-04T04:18:59.665Z,1.90
2023-11-04T04:21:01.249Z,1.70
2023-11-04T04:23:03.849Z,1.77
2023-11-04T04:25:05.856Z,1.70
2023-11-04T04:27:07.300Z,2.08
2023-11-04T04:29:09.004Z,1.80
2023-11-04T04:31:10.513Z,1.70
2023-11-04T04:33:12.090Z,1.98
2023-11-04T04:35:13.807Z,1.70
2023-11-04T04:37:15.305Z,1.80
2023-11-04T04:39:17.597Z,1.60
2023-11-04T04:41:19.411Z,1.88
2023-11-04T04:43:21.147Z,2.00
2023-11-04T04:45:22.825Z,1.92
2023-11-04T04:47:24.298Z,1.88
2023-11-04T04:49:25.834Z,1.80
2023-11-04T04:51:27.407Z,2.08
2023-11-04T04:53:28.860Z,1.73
2023-11-04T04:55:30.366Z,2.22
2023-11-04T04:57:32.245Z,1.90
2023-11-04T04:59:34.183Z,2.28
2023-11-04T05:01:35.745Z,2.10
2023-11-04T05:03:37.348Z,2.05
2023-11-04T05:05:38.890Z,1.95
2023-11-04T05:07:41.053Z,2.30
2023-11-04T05:09:42.599Z,2.03
2023-11-04T05:11:44.094Z,2.03
2023-11-04T05:13:45.552Z,2.33
2023-11-04T05:15:47.083Z,2.40
2023-11-04T05:17:49.934Z,2.40
2023-11-04T05:19:53.515Z,2.60
2023-11-04T05:21:55.073Z,2.35
2023-11-04T05:23:56.614Z,2.90
2023-11-04T05:25:59.149Z,2.50
2023-11-04T05:28:00.641Z,2.55
2023-11-04T05:30:02.196Z,2.65
2023-11-04T05:32:05.443Z,2.92
2023-11-04T05:34:07.427Z,2.72
2023-11-04T05:36:09.280Z,2.85
2023-11-04T05:38:10.768Z,2.55
2023-11-04T05:40:12.676Z,2.83
2023-11-04T05:42:14.218Z,3.13
2023-11-04T05:44:16.803Z,2.85
2023-11-04T05:46:18.301Z,2.90
2023-11-04T05:48:20.484Z,2.88
2023-11-04T05:50:22.060Z,3.33
2023-11-04T05:52:23.567Z,2.70
2023-11-04T05:54:25.094Z,2.63
2023-11-04T05:56:27.385Z,3.08
2023-11-04T05:58:28.874Z,3.63
2023-11-04T06:00:30.806Z,3.10
2023-11-04T06:02:32.272Z,2.90
2023-11-04T06:04:33.884Z,3.42
2023-11-04T06:06:35.619Z,3.13
2023-11-04T06:08:37.264Z,3.10
2023-11-04T06:10:38.897Z,2.97
2023-11-04T06:12:40.566Z,3.45
2023-11-04T06:14:42.080Z,2.97
2023-11-04T06:16:44.622Z,3.55
2023-11-04T06:18:46.814Z,3.50
2023-11-04T06:20:48.856Z,3.28
2023-11-04T06:22:50.331Z,3.65
2023-11-04T06:24:53.941Z,3.60
2023-11-04T06:26:57.145Z,3.38
2023-11-04T06:28:58.617Z,3.53
2023-11-04T06:31:00.392Z,3.10
2023-11-04T06:33:01.944Z,3.40
2023-11-04T06:35:03.751Z,3.72
2023-11-04T06:37:06.591Z,4.03
2023-11-04T06:39:08.365Z,3.25
2023-11-04T06:41:17.408Z,3.75
2023-11-04T06:43:20.913Z,3.72
2023-11-04T06:45:22.443Z,3.38
2023-11-04T06:47:24.464Z,3.47
2023-11-04T06:49:26.052Z,3.97
2023-11-04T06:51:27.782Z,3.10
2023-11-04T06:53:29.480Z,3.95
2023-11-04T06:55:33.452Z,3.28
2023-11-04T06:57:35.146Z,3.40
2023-11-04T06:59:41.530Z,3.97
2023-11-04T07:01:48.677Z,3.17
2023-11-04T07:03:50.320Z,4.10
2023-11-04T07:05:52.102Z,4.10
2023-11-04T07:07:53.848Z,3.70
2023-11-04T07:09:55.384Z,3.92
2023-11-04T07:11:56.920Z,4.10
2023-11-04T07:13:58.500Z,3.78
2023-11-04T07:16:00.028Z,3.55
2023-11-04T07:18:01.637Z,3.80
2023-11-04T07:20:05.911Z,3.60
2023-11-04T07:22:08.040Z,3.90
2023-11-04T07:24:10.235Z,3.90
2023-11-04T07:26:14.484Z,3.70
2023-11-04T07:28:15.970Z,3.53
2023-11-04T07:30:17.435Z,3.28
2023-11-04T07:32:18.960Z,3.40
2023-11-04T07:34:20.631Z,3.03
2023-11-04T07:36:26.514Z,3.58
2023-11-04T07:38:28.117Z,3.30
2023-11-04T07:40:29.711Z,3.30
2023-11-04T07:42:31.277Z,2.85
2023-11-04T07:44:32.823Z,3.25
2023-11-04T07:46:34.542Z,3.03
2023-11-04T07:48:36.712Z,3.25
2023-11-04T07:50:38.895Z,3.30
2023-11-04T07:52:53.978Z,3.50
2023-11-04T07:55:00.369Z,3.42
2023-11-04T07:57:02.163Z,3.15
2023-11-04T07:59:03.835Z,3.20
2023-11-04T08:01:06.933Z,3.13
2023-11-04T08:03:08.594Z,2.92
2023-11-04T08:05:11.147Z,3.25
2023-11-04T08:07:12.773Z,2.90
2023-11-04T08:09:14.281Z,3.03
2023-11-04T08:11:17.268Z,3.25
2023-11-04T08:13:21.105Z,2.95
2023-11-04T08:15:23.236Z,2.85
2023-11-04T08:17:24.984Z,2.75
2023-11-04T08:19:29.398Z,2.80
2023-11-04T08:21:31.712Z,2.80
2023-11-04T08:23:33.643Z,2.85
2023-11-04T08:25:35.357Z,2.33
2023-11-04T08:27:37.334Z,2.28
2023-11-04T08:29:42.087Z,2.60
2023-11-04T08:31:43.584Z,2.60
2023-11-04T08:33:45.358Z,2.58
2023-11-04T08:35:47.713Z,2.80
2023-11-04T08:37:49.351Z,2.67
2023-11-04T08:39:52.147Z,2.40
2023-11-04T08:41:53.625Z,2.58
2023-11-04T08:43:55.102Z,2.70
2023-11-04T08:45:56.674Z,2.78
2023-11-04T08:47:58.298Z,2.45
2023-11-04T08:50:00.038Z,2.90
2023-11-04T08:52:01.520Z,2.60
2023-11-04T08:54:03.293Z,2.30
2023-11-04T08:56:06.779Z,2.60
2023-11-04T08:58:08.346Z,2.22
2023-11-04T09:00:12.707Z,2.33
2023-11-04T09:02:14.713Z,2.35
2023-11-04T09:04:23.730Z,2.20
2023-11-04T09:06:28.079Z,2.15
2023-11-04T09:08:29.686Z,2.22
2023-11-04T09:10:31.211Z,2.00
2023-11-04T09:12:32.738Z,2.10
2023-11-04T09:14:35.091Z,1.90
2023-11-04T09:16:37.283Z,1.95
2023-11-04T09:18:41.852Z,2.30
2023-11-04T09:20:44.163Z,2.03
2023-11-04T09:22:45.850Z,2.08
2023-11-04T09:24:47.517Z,2.08
2023-11-04T09:26:49.181Z,2.13
2023-11-04T09:28:50.796Z,2.10
2023-11-04T09:30:55.593Z,2.00
2023-11-04T09:32:57.483Z,1.88
2023-11-04T09:34:59.547Z,1.98
2023-11-04T09:37:01.101Z,1.77
2023-11-04T09:39:03.073Z,2.08
2023-11-04T09:41:06.166Z,1.80
2023-11-04T09:43:08.233Z,2.53
2023-11-04T09:45:11.317Z,2.65
2023-11-04T09:47:13.088Z,3.70
2023-11-04T09:49:15.412Z,2.92
2023-11-04T09:51:22.495Z,2.65
2023-11-04T09:53:28.573Z,2.17
2023-11-04T09:55:30.138Z,2.03
2023-11-04T09:57:31.759Z,2.10
2023-11-04T09:59:34.934Z,1.73
2023-11-04T10:01:36.483Z,1.65
2023-11-04T10:03:38.074Z,1.20
2023-11-04T10:05:39.640Z,1.35
2023-11-04T10:07:41.123Z,1.00
2023-11-04T10:09:45.114Z,1.02
2023-11-04T10:11:46.886Z,1.23
2023-11-04T10:13:48.504Z,1.10
2023-11-04T10:15:50.093Z,1.00
2023-11-04T10:17:52.294Z,1.00
2023-11-04T10:19:54.733Z,0.95
2023-11-04T10:21:56.232Z,1.00
2023-11-04T10:23:58.412Z,0.80
2023-11-04T10:26:05.454Z,0.80
2023-11-04T10:28:07.594Z,1.08
2023-11-04T10:30:10.628Z,0.93
2023-11-04T10:32:12.902Z,0.73
2023-11-04T10:34:16.231Z,0.95
2023-11-04T10:36:19.085Z,0.85
2023-11-04T10:38:23.759Z,0.70
2023-11-04T10:40:26.146Z,0.90
2023-11-04T10:42:31.071Z,0.60
2023-11-04T10:44:39.853Z,0.82
2023-11-04T10:46:54.266Z,0.90
2023-11-04T10:49:20.224Z,0.80
2023-11-04T10:51:29.763Z,0.60
2023-11-04T10:53:42.870Z,0.70
2023-11-04T10:55:55.126Z,0.90
2023-11-04T10:58:04.268Z,0.70
2023-11-04T11:00:24.719Z,0.73
2023-11-04T11:02:27.940Z,0.82
2023-11-04T11:04:32.231Z,0.80
2023-11-04T11:06:34.579Z,0.65
2023-11-04T11:08:36.395Z,0.68
2023-11-04T11:11:04.124Z,0.65
2023-11-04T11:13:12.171Z,0.73
2023-11-04T11:15:14.111Z,0.75
2023-11-04T11:17:15.637Z,0.60
2023-11-04T11:19:17.236Z,0.55
2023-11-04T11:21:22.292Z,0.60
2023-11-04T11:23:27.965Z,0.50
2023-11-04T11:25:36.379Z,0.70
2023-11-04T11:27:45.423Z,0.77
2023-11-04T11:29:47.558Z,0.60
2023-11-04T11:31:54.811Z,0.63
2023-11-04T11:34:07.613Z,0.80
2023-11-04T11:36:15.599Z,0.55
2023-11-04T11:38:17.742Z,0.60
2023-11-04T11:40:26.380Z,0.60
2023-11-04T11:42:28.048Z,0.60
2023-11-04T11:44:29.530Z,0.73
2023-11-04T11:46:33.506Z,0.70
2023-11-04T11:48:37.661Z,0.85
2023-11-04T11:50:41.997Z,0.88
2023-11-04T11:52:43.541Z,0.60
2023-11-04T11:54:45.274Z,0.80
2023-11-04T11:56:46.948Z,0.88
2023-11-04T11:58:50.069Z,0.80
2023-11-04T12:00:51.703Z,0.70
2023-11-04T12:02:56.068Z,0.70
2023-11-04T12:04:57.674Z,0.60
2023-11-04T12:07:01.313Z,0.60
2023-11-04T12:09:03.237Z,0.60
2023-11-04T12:11:05.042Z,0.60
2023-11-04T12:13:06.569Z,0.57
2023-11-04T12:15:16.973Z,0.68
2023-11-04T12:17:18.469Z,0.60
2023-11-04T12:19:22.230Z,0.52
2023-11-04T12:21:26.118Z,0.60
2023-11-04T12:23:31.179Z,0.60
2023-11-04T12:25:33.217Z,0.50
2023-11-04T12:27:48.398Z,0.60
2023-11-04T12:29:53.870Z,0.70
2023-11-04T12:31:58.414Z,0.40
2023-11-04T12:34:00.389Z,0.70
2023-11-04T12:36:08.163Z,0.57
2023-11-04T12:38:10.001Z,0.60
2023-11-04T12:40:15.107Z,0.50
2023-11-04T12:42:16.843Z,0.60
2023-11-04T12:44:21.357Z,0.50
2023-11-04T12:46:28.576Z,0.60
2023-11-04T12:48:30.331Z,0.40
2023-11-04T12:50:32.179Z,0.50
2023-11-04T12:52:34.473Z,0.50
2023-11-04T12:54:37.413Z,0.57
2023-11-04T12:56:38.947Z,0.52
2023-11-04T12:58:40.779Z,0.50
2023-11-04T13:00:42.252Z,0.50
2023-11-04T13:02:44.139Z,0.45
2023-11-04T13:04:45.779Z,0.50
2023-11-04T13:06:47.363Z,0.50
2023-11-04T13:08:48.861Z,0.52
2023-11-04T13:10:51.771Z,0.43
2023-11-04T13:12:53.379Z,0.50
2023-11-04T13:14:54.876Z,0.50
2023-11-04T13:16:58.208Z,0.60
2023-11-04T13:19:02.900Z,0.50
2023-11-04T13:21:06.913Z,0.52
2023-11-04T13:23:08.433Z,0.77
2023-11-04T13:25:09.979Z,0.85
2023-11-04T13:27:11.549Z,1.00
2023-11-04T13:29:14.445Z,0.70
2023-11-04T13:31:18.098Z,0.60
2023-11-04T13:33:19.954Z,0.60
2023-11-04T13:35:22.134Z,0.60
2023-11-04T13:37:23.773Z,0.57
2023-11-04T13:39:28.007Z,0.70
2023-11-04T13:41:29.980Z,0.60
2023-11-04T13:43:31.463Z,0.40
2023-11-04T13:45:32.934Z,0.63
2023-11-04T13:47:37.352Z,0.57
2023-11-04T13:49:41.707Z,0.73
2023-11-04T13:51:45.692Z,0.70
2023-11-04T13:53:49.324Z,0.70
2023-11-04T13:55:54.195Z,0.57
2023-11-04T13:57:55.804Z,0.65
2023-11-04T13:59:57.358Z,0.68
2023-11-04T14:01:58.865Z,0.80
2023-11-04T14:04:02.554Z,0.50
2023-11-04T14:06:06.069Z,0.50
2023-11-04T14:08:08.013Z,0.60
2023-11-04T14:10:10.392Z,0.60
2023-11-04T14:12:13.231Z,0.60
2023-11-04T14:14:14.853Z,0.65
2023-11-04T14:16:16.421Z,0.50
2023-11-04T14:18:18.768Z,0.70
2023-11-04T14:20:21.448Z,0.60
2023-11-04T14:22:22.958Z,0.80
2023-11-04T14:24:24.445Z,0.70
2023-11-04T14:26:26.000Z,0.50
2023-11-04T14:28:27.737Z,0.50
2023-11-04T14:30:29.415Z,0.50
2023-11-04T14:32:30.962Z,0.57
2023-11-04T14:34:32.486Z,0.60
2023-11-04T14:36:33.989Z,0.70
2023-11-04T14:38:35.439Z,0.70
2023-11-04T14:40:37.705Z,0.45
2023-11-04T14:42:39.217Z,0.60
2023-11-04T14:44:41.117Z,0.60
2023-11-04T14:46:42.593Z,0.47
2023-11-04T14:48:44.509Z,0.40
2023-11-04T14:50:46.300Z,0.40
2023-11-04T14:52:47.898Z,0.40
2023-11-04T14:54:49.424Z,0.50
2023-11-04T14:56:50.954Z,0.50
2023-11-04T14:58:52.833Z,0.40
2023-11-04T15:00:55.891Z,0.40
2023-11-04T15:02:58.333Z,0.50
2023-11-04T15:04:59.802Z,0.50
2023-11-04T15:07:01.281Z,0.52
2023-11-04T15:09:03.564Z,0.50
2023-11-04T15:11:05.315Z,0.57
2023-11-04T15:13:06.848Z,0.75
2023-11-04T15:15:08.639Z,0.65
2023-11-04T15:17:10.639Z,0.80
2023-11-04T15:19:12.424Z,1.00
2023-11-04T15:21:14.628Z,0.80
2023-11-04T15:23:16.335Z,0.77
2023-11-04T15:25:17.845Z,0.90
2023-11-04T15:27:19.459Z,0.68
2023-11-04T15:29:20.949Z,0.80
2023-11-04T15:31:22.503Z,0.90
2023-11-04T15:33:24.052Z,0.60
2023-11-04T15:35:26.110Z,0.60
2023-11-04T15:37:28.637Z,0.63
2023-11-04T15:39:34.235Z,0.50
2023-11-04T15:41:38.910Z,0.80
2023-11-04T15:43:40.438Z,0.70
2023-11-04T15:45:41.945Z,0.60
2023-11-04T15:47:43.478Z,0.73
2023-11-04T15:49:46.973Z,0.60
2023-11-04T15:51:48.544Z,0.90
2023-11-04T15:53:52.381Z,0.90
2023-11-04T15:55:55.488Z,1.08
2023-11-04T15:57:57.069Z,0.77
2023-11-04T15:59:58.590Z,0.70
2023-11-04T16:02:00.092Z,0.65
2023-11-04T16:04:01.673Z,0.70
2023-11-04T16:06:03.340Z,0.93
2023-11-04T16:08:05.103Z,0.60
2023-11-04T16:10:09.457Z,0.88
2023-11-04T16:12:11.976Z,0.90
2023-11-04T16:14:14.136Z,0.90
2023-11-04T16:16:15.717Z,0.80
2023-11-04T16:18:17.370Z,0.70
2023-11-04T16:20:20.098Z,0.73
2023-11-04T16:22:21.605Z,0.60
2023-11-04T16:24:23.151Z,0.60
2023-11-04T16:26:24.674Z,0.50
2023-11-04T16:28:26.149Z,0.50
2023-11-04T16:30:28.440Z,0.47
2023-11-04T16:32:30.249Z,0.50
2023-11-04T16:34:31.776Z,0.68
2023-11-04T16:36:33.455Z,0.40
2023-11-04T16:38:34.899Z,0.43
2023-11-04T16:40:36.457Z,0.60
2023-11-04T16:42:40.032Z,0.50
2023-11-04T16:44:44.673Z,0.50
2023-11-04T16:46:46.331Z,0.65
2023-11-04T16:48:48.264Z,0.73
2023-11-04T16:50:50.152Z,0.55
2023-11-04T16:52:51.798Z,0.50
2023-11-04T16:54:53.338Z,0.68
2023-11-04T16:56:55.094Z,0.60
2023-11-04T16:58:56.566Z,0.70
2023-11-04T17:00:58.563Z,0.82
2023-11-04T17:03:00.265Z,0.60
2023-11-04T17:05:02.260Z,0.80
2023-11-04T17:07:04.972Z,0.90
2023-11-04T17:09:10.655Z,0.70
2023-11-04T17:11:12.206Z,0.70
2023-11-04T17:13:13.926Z,0.63
2023-11-04T17:15:16.212Z,0.60
2023-11-04T17:17:17.769Z,0.93
2023-11-04T17:19:19.350Z,0.70
2023-11-04T17:21:20.842Z,1.15
2023-11-04T17:23:22.772Z,0.70
2023-11-04T17:25:24.311Z,0.82
2023-11-04T17:27:26.004Z,0.80
2023-11-04T17:29:27.975Z,0.88
2023-11-04T17:31:30.160Z,0.90
2023-11-04T17:33:31.667Z,0.93
2023-11-04T17:35:33.198Z,0.70
2023-11-04T17:37:34.795Z,0.98
2023-11-04T17:39:36.423Z,0.82
2023-11-04T17:41:37.922Z,0.93
2023-11-04T17:43:39.950Z,1.10
2023-11-04T17:45:41.412Z,1.20
2023-11-04T17:47:43.334Z,1.00
2023-11-04T17:49:45.511Z,1.20
2023-11-04T17:51:47.379Z,1.00
2023-11-04T17:53:48.912Z,1.15
2023-11-04T17:55:50.379Z,1.00
2023-11-04T17:57:51.954Z,1.10
2023-11-04T17:59:53.604Z,0.70
2023-11-04T18:01:55.130Z,0.98
2023-11-04T18:03:58.386Z,1.02
2023-11-04T18:05:59.856Z,0.85
2023-11-04T18:08:01.587Z,1.10
2023-11-04T18:10:03.939Z,1.00
2023-11-04T18:12:05.987Z,0.98
2023-11-04T18:14:08.913Z,1.00
2023-11-04T18:16:10.530Z,1.10
2023-11-04T18:18:12.152Z,1.00
2023-11-04T18:20:13.788Z,1.05
2023-11-04T18:22:15.363Z,1.00
2023-11-04T18:24:19.167Z,1.02
2023-11-04T18:26:21.194Z,1.05
2023-11-04T18:28:22.704Z,1.10
2023-11-04T18:30:24.238Z,1.10
2023-11-04T18:32:25.744Z,1.20
2023-11-04T18:34:27.460Z,1.10
2023-11-04T18:36:29.227Z,1.08
2023-11-04T18:38:30.703Z,1.00
2023-11-04T18:40:32.194Z,0.80
2023-11-04T18:42:33.681Z,1.00
2023-11-04T18:44:35.173Z,1.10
2023-11-04T18:46:38.585Z,1.00
2023-11-04T18:48:40.934Z,1.10
2023-11-04T18:50:47.659Z,1.20
2023-11-04T18:53:05.541Z,0.70
2023-11-04T18:55:07.542Z,0.90
2023-11-04T18:57:09.146Z,0.80
2023-11-04T18:59:10.710Z,1.00
2023-11-04T19:01:12.310Z,1.00
2023-11-04T19:03:20.086Z,1.00
2023-11-04T19:05:21.732Z,0.90
2023-11-04T19:07:23.423Z,1.10
2023-11-04T19:09:25.589Z,0.93
2023-11-04T19:11:27.087Z,1.15
2023-11-04T19:13:28.642Z,1.15
2023-11-04T19:15:30.295Z,0.90
2023-11-04T19:17:32.188Z,0.77
2023-11-04T19:19:36.259Z,0.85
2023-11-04T19:21:40.370Z,1.00
2023-11-04T19:23:41.847Z,0.80
2023-11-04T19:25:43.396Z,0.50
2023-11-04T19:27:44.986Z,0.73
2023-11-04T19:29:46.877Z,0.80
2023-11-04T19:31:48.376Z,0.70
2023-11-04T19:33:50.131Z,0.60
2023-11-04T19:35:51.805Z,0.90
2023-11-04T19:37:53.619Z,0.80
2023-11-04T19:39:55.104Z,0.60
2023-11-04T19:41:57.080Z,0.70
2023-11-04T19:44:01.019Z,0.80
2023-11-04T19:46:03.394Z,0.60
2023-11-04T19:48:05.834Z,0.60
2023-11-04T19:50:08.452Z,0.60
2023-11-04T19:52:10.169Z,0.57
2023-11-04T19:54:11.757Z,0.60
2023-11-04T19:56:13.305Z,0.60
2023-11-04T19:58:14.777Z,0.80
2023-11-04T20:00:16.502Z,0.60
2023-11-04T20:02:18.220Z,0.82
2023-11-04T20:04:19.851Z,0.70
2023-11-04T20:06:21.540Z,0.68
2023-11-04T20:08:23.029Z,0.63
2023-11-04T20:10:25.004Z,0.50
2023-11-04T20:12:26.527Z,0.55
2023-11-04T20:14:33.668Z,0.90
2023-11-04T20:16:36.000Z,0.65
2023-11-04T20:18:37.506Z,0.70
2023-11-04T20:20:39.033Z,0.60
2023-11-04T20:22:40.593Z,0.50
2023-11-04T20:24:51.332Z,0.68
2023-11-04T20:26:52.830Z,0.60
2023-11-04T20:28:54.317Z,0.63
2023-11-04T20:30:57.129Z,0.60
2023-11-04T20:32:58.717Z,0.77
2023-11-04T20:35:00.641Z,0.60
2023-11-04T20:37:02.124Z,0.65
2023-11-04T20:39:05.199Z,0.47
2023-11-04T20:41:06.959Z,0.50
2023-11-04T20:43:08.987Z,0.50
2023-11-04T20:45:10.630Z,0.70
2023-11-04T20:47:14.199Z,0.50
2023-11-04T20:49:15.736Z,0.65
2023-11-04T20:51:17.845Z,0.60
2023-11-04T20:53:20.535Z,0.95
2023-11-04T20:55:22.335Z,0.50
2023-11-04T20:57:26.034Z,0.60
2023-11-04T20:59:27.654Z,0.50
2023-11-04T21:01:29.198Z,0.70
2023-11-04T21:03:30.749Z,0.70
2023-11-04T21:05:32.424Z,0.60
2023-11-04T21:07:34.321Z,0.73
2023-11-04T21:09:36.558Z,0.70
2023-11-04T21:11:39.868Z,0.60
2023-11-04T21:13:41.380Z,0.50
2023-11-04T21:15:43.550Z,0.70
2023-11-04T21:17:45.807Z,0.60
2023-11-04T21:19:48.513Z,0.47
2023-11-04T21:21:49.965Z,0.60
2023-11-04T21:23:52.217Z,0.60
2023-11-04T21:25:53.845Z,0.70
2023-11-04T21:27:55.337Z,0.60
2023-11-04T21:29:57.307Z,0.50
2023-11-04T21:31:58.802Z,0.50
2023-11-04T21:34:00.318Z,0.50
2023-11-04T21:36:02.350Z,0.60
2023-11-04T21:38:05.046Z,0.50
2023-11-04T21:40:07.852Z,0.70
2023-11-04T21:42:10.310Z,0.63
2023-11-04T21:44:12.134Z,0.50
2023-11-04T21:46:13.894Z,0.50
2023-11-04T21:48:15.475Z,0.60
2023-11-04T21:50:18.096Z,0.47
2023-11-04T21:52:19.626Z,0.43
2023-11-04T21:54:21.385Z,0.47
2023-11-04T21:56:22.898Z,0.40
2023-11-04T21:58:24.490Z,0.63
2023-11-04T22:00:25.965Z,0.50
2023-11-04T22:02:27.652Z,0.50
2023-11-04T22:04:29.451Z,0.40
2023-11-04T22:06:31.186Z,0.60
2023-11-04T22:08:32.714Z,0.68
2023-11-04T22:10:38.780Z,0.32
2023-11-04T22:12:40.414Z,0.47
2023-11-04T22:14:41.863Z,0.60
2023-11-04T22:16:43.328Z,0.60
2023-11-04T22:18:45.006Z,0.77
2023-11-04T22:20:46.671Z,0.50
2023-11-04T22:22:48.145Z,0.50
2023-11-04T22:24:49.639Z,0.50
2023-11-04T22:26:51.105Z,0.40
2023-11-04T22:28:52.616Z,0.55
2023-11-04T22:30:54.289Z,0.45
2023-11-04T22:32:56.407Z,0.40
2023-11-04T22:34:57.898Z,0.40
2023-11-04T22:36:59.413Z,0.63
2023-11-04T22:39:00.909Z,0.60
2023-11-04T22:41:02.499Z,0.30
2023-11-04T22:43:04.470Z,0.70
2023-11-04T22:45:06.937Z,0.35
2023-11-04T22:47:08.423Z,0.35
2023-11-04T22:49:14.229Z,0.30
2023-11-04T22:51:16.588Z,0.40
2023-11-04T22:53:18.078Z,0.47
2023-11-04T22:55:22.626Z,0.40
2023-11-04T22:57:24.682Z,0.52
2023-11-04T22:59:26.506Z,0.50
2023-11-04T23:01:29.843Z,0.88
2023-11-04T23:03:31.512Z,0.40
2023-11-04T23:05:34.029Z,0.50
2023-11-04T23:07:35.627Z,0.40
2023-11-04T23:09:37.461Z,0.40
2023-11-04T23:11:38.933Z,0.40
2023-11-04T23:13:41.114Z,0.38
2023-11-04T23:15:42.593Z,0.40
2023-11-04T23:17:47.406Z,0.40
2023-11-04T23:19:48.875Z,0.50
2023-11-04T23:21:50.414Z,0.50
2023-11-04T23:23:52.082Z,0.40
2023-11-04T23:25:53.578Z,0.40
2023-11-04T23:27:55.208Z,0.40
2023-11-04T23:29:56.679Z,0.40
2023-11-04T23:31:58.241Z,0.50
2023-11-04T23:33:59.791Z,0.43
2023-11-04T23:36:01.290Z,0.50
2023-11-04T23:38:03.102Z,0.30
2023-11-04T23:40:06.737Z,0.50
2023-11-04T23:42:08.538Z,0.40
2023-11-04T23:44:10.054Z,0.40
2023-11-04T23:46:11.614Z,0.40
2023-11-04T23:48:13.114Z,0.50
2023-11-04T23:50:14.882Z,0.40
2023-11-04T23:52:16.493Z,0.30
2023-11-04T23:54:17.998Z,0.30
2023-11-04T23:56:19.481Z,0.40
2023-11-04T23:58:21.116Z,0.30
